createdAt,value
2023-03-27T00:00:40.215Z,927.13
2023-03-27T00:01:40.217Z,927.16
2023-03-27T00:02:40.323Z,927.21
2023-03-27T00:03:40.613Z,927.11
2023-03-27T00:04:40.156Z,927.11
2023-03-27T00:05:40.166Z,927.24
2023-03-27T00:06:40.175Z,927.05
2023-03-27T00:07:40.113Z,927.20
2023-03-27T00:08:40.119Z,927.11
2023-03-27T00:09:40.139Z,927.18
2023-03-27T00:10:40.157Z,927.22
2023-03-27T00:11:40.085Z,927.21
2023-03-27T00:12:40.134Z,927.14
2023-03-27T00:13:49.550Z,927.16
2023-03-27T00:14:41.050Z,927.12
2023-03-27T00:15:40.044Z,927.19
2023-03-27T00:16:40.082Z,927.11
2023-03-27T00:17:40.059Z,927.24
2023-03-27T00:18:40.022Z,927.19
2023-03-27T00:19:40.001Z,927.21
2023-03-27T00:20:40.298Z,927.16
2023-03-27T00:21:39.988Z,927.10
2023-03-27T00:22:39.969Z,927.09
2023-03-27T00:23:39.946Z,927.00
2023-03-27T00:24:39.979Z,926.94
2023-03-27T00:25:39.983Z,927.09
2023-03-27T00:26:39.940Z,927.06
2023-03-27T00:27:39.901Z,927.03
2023-03-27T00:28:39.978Z,927.19
2023-03-27T00:29:39.896Z,927.23
2023-03-27T00:30:39.927Z,927.27
2023-03-27T00:31:39.906Z,927.18
2023-03-27T00:32:39.881Z,927.23
2023-03-27T00:33:39.856Z,927.23
2023-03-27T00:34:39.899Z,927.23
2023-03-27T00:35:39.910Z,927.32
2023-03-27T00:36:39.826Z,927.22
2023-03-27T00:37:39.841Z,927.25
2023-03-27T00:38:40.113Z,927.30
2023-03-27T00:39:39.788Z,927.32
2023-03-27T00:40:39.902Z,927.28
2023-03-27T00:41:39.779Z,927.31
2023-03-27T00:42:39.830Z,927.34
2023-03-27T00:43:39.752Z,927.28
2023-03-27T00:44:39.866Z,927.33
2023-03-27T00:45:39.720Z,927.21
2023-03-27T00:46:39.774Z,927.29
2023-03-27T00:47:39.717Z,927.25
2023-03-27T00:48:39.740Z,927.34
2023-03-27T00:49:39.752Z,927.33
2023-03-27T00:50:39.682Z,927.32
2023-03-27T00:51:39.661Z,927.32
2023-03-27T00:52:39.662Z,927.38
2023-03-27T00:53:39.630Z,927.29
2023-03-27T00:54:39.622Z,927.35
2023-03-27T00:55:39.605Z,927.35
2023-03-27T00:56:39.626Z,927.37
2023-03-27T00:57:39.626Z,927.40
2023-03-27T00:58:39.581Z,927.40
2023-03-27T00:59:39.584Z,927.37
2023-03-27T01:00:39.559Z,927.38
2023-03-27T01:01:39.642Z,927.40
2023-03-27T01:02:39.603Z,927.37
2023-03-27T01:03:39.732Z,927.34
2023-03-27T01:04:39.513Z,927.34
2023-03-27T01:05:39.534Z,927.44
2023-03-27T01:06:39.523Z,927.41
2023-03-27T01:07:39.475Z,927.36
2023-03-27T01:08:39.493Z,927.41
2023-03-27T01:09:39.567Z,927.40
2023-03-27T01:10:39.454Z,927.44
2023-03-27T01:11:39.485Z,927.41
2023-03-27T01:12:39.440Z,927.44
2023-03-27T01:13:39.418Z,927.37
2023-03-27T01:14:39.400Z,927.41
2023-03-27T01:15:39.477Z,927.38
2023-03-27T01:16:39.399Z,927.32
2023-03-27T01:17:39.377Z,927.33
2023-03-27T01:18:39.370Z,927.33
2023-03-27T01:19:39.390Z,927.44
2023-03-27T01:20:40.316Z,927.45
2023-03-27T01:21:39.380Z,927.34
2023-03-27T01:22:39.370Z,927.34
2023-03-27T01:23:59.974Z,927.33
2023-03-27T01:24:40.294Z,927.28
2023-03-27T01:25:39.279Z,927.44
2023-03-27T01:26:39.297Z,927.39
2023-03-27T01:27:47.790Z,927.43
2023-03-27T01:28:39.256Z,927.45
2023-03-27T01:29:39.250Z,927.38
2023-03-27T01:30:39.249Z,927.45
2023-03-27T01:31:39.396Z,927.39
2023-03-27T01:32:39.259Z,927.42
2023-03-27T01:33:39.310Z,927.47
2023-03-27T01:34:39.222Z,927.43
2023-03-27T01:35:39.243Z,927.43
2023-03-27T01:36:39.197Z,927.42
2023-03-27T01:37:39.152Z,927.40
2023-03-27T01:38:39.179Z,927.52
2023-03-27T01:39:39.183Z,927.45
2023-03-27T01:40:39.131Z,927.48
2023-03-27T01:41:39.116Z,927.44
2023-03-27T01:42:39.113Z,927.54
2023-03-27T01:43:39.097Z,927.48
2023-03-27T01:44:43.209Z,927.47
2023-03-27T01:45:40.121Z,927.48
2023-03-27T01:46:39.155Z,927.54
2023-03-27T01:47:39.133Z,927.51
2023-03-27T01:48:39.083Z,927.57
2023-03-27T01:49:39.049Z,927.54
2023-03-27T01:50:39.049Z,927.49
2023-03-27T01:51:39.016Z,927.58
2023-03-27T01:52:39.040Z,927.56
2023-03-27T01:53:39.094Z,927.53
2023-03-27T01:54:39.326Z,927.56
2023-03-27T01:55:38.967Z,927.55
2023-03-27T01:56:39.001Z,927.61
2023-03-27T01:57:49.233Z,927.58
2023-03-27T01:58:39.938Z,927.56
2023-03-27T01:59:38.934Z,927.53
2023-03-27T02:00:52.280Z,927.63
2023-03-27T02:01:39.973Z,927.58
2023-03-27T02:02:38.964Z,927.60
2023-03-27T02:03:38.888Z,927.64
2023-03-27T02:04:38.922Z,927.52
2023-03-27T02:05:39.312Z,927.60
2023-03-27T02:06:38.888Z,927.35
2023-03-27T02:07:38.845Z,927.70
2023-03-27T02:08:38.840Z,927.83
2023-03-27T02:09:38.847Z,927.74
2023-03-27T02:10:38.856Z,927.74
2023-03-27T02:11:38.845Z,927.80
2023-03-27T02:12:38.801Z,927.74
2023-03-27T02:13:38.799Z,927.80
2023-03-27T02:14:38.778Z,927.77
2023-03-27T02:15:38.776Z,927.83
2023-03-27T02:16:38.812Z,927.71
2023-03-27T02:17:38.806Z,927.81
2023-03-27T02:18:38.754Z,927.87
2023-03-27T02:19:38.731Z,927.84
2023-03-27T02:20:38.732Z,927.87
2023-03-27T02:21:38.747Z,927.79
2023-03-27T02:22:38.718Z,927.89
2023-03-27T02:23:38.694Z,927.91
2023-03-27T02:24:38.706Z,927.96
2023-03-27T02:25:38.664Z,927.91
2023-03-27T02:26:38.692Z,927.91
2023-03-27T02:27:38.670Z,927.93
2023-03-27T02:28:38.627Z,927.93
2023-03-27T02:29:38.658Z,927.98
2023-03-27T02:30:38.618Z,927.94
2023-03-27T02:31:38.962Z,927.98
2023-03-27T02:32:38.969Z,927.98
2023-03-27T02:33:38.599Z,928.05
2023-03-27T02:34:38.611Z,928.02
2023-03-27T02:35:38.614Z,928.01
2023-03-27T02:36:39.289Z,928.07
2023-03-27T02:37:38.543Z,928.07
2023-03-27T02:38:38.535Z,928.13
2023-03-27T02:39:38.542Z,928.13
2023-03-27T02:40:40.103Z,928.15
2023-03-27T02:41:38.544Z,928.11
2023-03-27T02:42:38.514Z,928.18
2023-03-27T02:43:38.476Z,928.07
2023-03-27T02:44:46.468Z,928.15
2023-03-27T02:45:39.487Z,928.06
2023-03-27T02:46:38.470Z,928.08
2023-03-27T02:47:38.527Z,928.12
2023-03-27T02:48:38.449Z,928.08
2023-03-27T02:49:38.423Z,928.14
2023-03-27T02:50:38.403Z,928.11
2023-03-27T02:51:38.411Z,928.18
2023-03-27T02:52:38.400Z,928.16
2023-03-27T02:53:38.407Z,928.18
2023-03-27T02:54:38.388Z,928.21
2023-03-27T02:55:38.369Z,928.21
2023-03-27T02:56:38.525Z,928.27
2023-03-27T02:57:38.343Z,928.20
2023-03-27T02:58:38.365Z,928.33
2023-03-27T02:59:38.313Z,928.31
2023-03-27T03:00:38.293Z,928.29
2023-03-27T03:01:38.320Z,928.28
2023-03-27T03:02:38.395Z,928.27
2023-03-27T03:03:38.327Z,928.35
2023-03-27T03:04:38.268Z,928.32
2023-03-27T03:05:38.268Z,928.34
2023-03-27T03:06:38.266Z,928.41
2023-03-27T03:07:38.316Z,928.38
2023-03-27T03:08:38.401Z,928.39
2023-03-27T03:09:40.372Z,928.40
2023-03-27T03:10:38.211Z,928.38
2023-03-27T03:11:38.195Z,928.37
2023-03-27T03:12:38.173Z,928.46
2023-03-27T03:13:38.177Z,928.42
2023-03-27T03:14:38.266Z,928.45
2023-03-27T03:15:38.147Z,928.45
2023-03-27T03:16:38.166Z,928.47
2023-03-27T03:17:38.179Z,928.53
2023-03-27T03:18:38.121Z,928.51
2023-03-27T03:19:38.148Z,928.62
2023-03-27T03:20:38.789Z,928.60
2023-03-27T03:21:38.079Z,928.67
2023-03-27T03:22:38.125Z,928.63
2023-03-27T03:23:38.085Z,928.74
2023-03-27T03:24:38.048Z,928.75
2023-03-27T03:25:38.306Z,928.80
2023-03-27T03:26:38.024Z,928.78
2023-03-27T03:27:38.022Z,928.81
2023-03-27T03:28:38.033Z,928.88
2023-03-27T03:29:38.005Z,928.83
2023-03-27T03:30:38.052Z,928.89
2023-03-27T03:31:38.023Z,928.90
2023-03-27T03:32:38.050Z,928.88
2023-03-27T03:33:37.964Z,928.87
2023-03-27T03:34:37.943Z,928.91
2023-03-27T03:35:38.049Z,928.94
2023-03-27T03:36:37.945Z,928.94
2023-03-27T03:37:37.912Z,928.94
2023-03-27T03:38:38.437Z,928.91
2023-03-27T03:39:37.948Z,928.97
2023-03-27T03:40:37.878Z,928.95
2023-03-27T03:41:37.864Z,929.05
2023-03-27T03:42:37.893Z,929.00
2023-03-27T03:43:37.889Z,929.12
2023-03-27T03:44:37.942Z,929.10
2023-03-27T03:45:37.845Z,929.07
2023-03-27T03:46:37.890Z,929.10
2023-03-27T03:47:37.856Z,929.16
2023-03-27T03:48:37.796Z,929.16
2023-03-27T03:49:37.958Z,929.09
2023-03-27T03:50:37.797Z,929.19
2023-03-27T03:51:37.870Z,929.20
2023-03-27T03:52:37.784Z,929.18
2023-03-27T03:53:37.780Z,929.28
2023-03-27T03:54:37.740Z,929.26
2023-03-27T03:55:37.794Z,929.42
2023-03-27T03:56:37.764Z,929.46
2023-03-27T03:57:37.714Z,929.45
2023-03-27T03:58:37.691Z,929.50
2023-03-27T03:59:37.696Z,929.50
2023-03-27T04:00:37.666Z,929.62
2023-03-27T04:01:37.733Z,929.55
2023-03-27T04:02:37.755Z,929.62
2023-03-27T04:03:37.767Z,929.61
2023-03-27T04:04:37.690Z,929.62
2023-03-27T04:05:37.616Z,929.68
2023-03-27T04:06:37.667Z,929.66
2023-03-27T04:07:37.734Z,929.79
2023-03-27T04:08:37.620Z,929.79
2023-03-27T04:09:37.594Z,929.85
2023-03-27T04:10:37.634Z,929.83
2023-03-27T04:11:37.563Z,929.91
2023-03-27T04:12:37.535Z,929.81
2023-03-27T04:13:37.562Z,929.91
2023-03-27T04:14:37.513Z,929.88
2023-03-27T04:15:37.576Z,929.96
2023-03-27T04:16:37.569Z,929.93
2023-03-27T04:17:37.559Z,929.94
2023-03-27T04:18:38.521Z,930.01
2023-03-27T04:19:37.476Z,929.99
2023-03-27T04:20:37.465Z,930.13
2023-03-27T04:21:37.550Z,930.11
2023-03-27T04:22:37.429Z,930.16
2023-03-27T04:23:37.424Z,930.15
2023-03-27T04:24:37.433Z,930.22
2023-03-27T04:25:37.535Z,930.14
2023-03-27T04:26:37.430Z,930.22
2023-03-27T04:27:37.497Z,930.20
2023-03-27T04:28:37.370Z,930.34
2023-03-27T04:29:37.396Z,930.38
2023-03-27T04:30:37.351Z,930.33
2023-03-27T04:31:37.425Z,930.38
2023-03-27T04:32:37.473Z,930.37
2023-03-27T04:33:37.364Z,930.47
2023-03-27T04:34:37.334Z,930.46
2023-03-27T04:35:37.339Z,930.51
2023-03-27T04:36:37.295Z,930.52
2023-03-27T04:37:37.323Z,930.55
2023-03-27T04:38:37.315Z,930.60
2023-03-27T04:39:37.342Z,930.57
2023-03-27T04:40:37.257Z,930.66
2023-03-27T04:41:37.263Z,930.61
2023-03-27T04:42:37.277Z,930.69
2023-03-27T04:43:37.245Z,930.64
2023-03-27T04:44:37.263Z,930.66
2023-03-27T04:45:37.259Z,930.76
2023-03-27T04:46:37.316Z,930.70
2023-03-27T04:47:37.203Z,930.82
2023-03-27T04:48:37.205Z,930.82
2023-03-27T04:49:37.162Z,930.81
2023-03-27T04:50:37.212Z,930.79
2023-03-27T04:51:37.144Z,930.91
2023-03-27T04:52:37.150Z,930.94
2023-03-27T04:53:37.256Z,930.93
2023-03-27T04:54:37.167Z,931.02
2023-03-27T04:55:37.123Z,930.93
2023-03-27T04:56:37.147Z,931.07
2023-03-27T04:57:37.077Z,931.05
2023-03-27T04:58:37.647Z,931.06
2023-03-27T04:59:37.078Z,931.18
2023-03-27T05:00:37.099Z,931.20
2023-03-27T05:01:37.213Z,931.21
2023-03-27T05:02:37.175Z,931.20
2023-03-27T05:03:37.060Z,931.34
2023-03-27T05:04:37.022Z,931.30
2023-03-27T05:05:37.083Z,931.39
2023-03-27T05:06:38.735Z,931.41
2023-03-27T05:07:37.370Z,931.40
2023-03-27T05:08:37.003Z,931.46
2023-03-27T05:09:36.964Z,931.47
2023-03-27T05:10:36.956Z,931.57
2023-03-27T05:11:36.933Z,931.56
2023-03-27T05:12:37.018Z,931.66
2023-03-27T05:13:36.952Z,931.63
2023-03-27T05:14:36.936Z,931.63
2023-03-27T05:15:36.889Z,931.66
2023-03-27T05:16:36.947Z,931.63
2023-03-27T05:17:36.960Z,931.65
2023-03-27T05:18:36.906Z,931.65
2023-03-27T05:19:38.079Z,931.81
2023-03-27T05:20:36.893Z,931.72
2023-03-27T05:21:36.844Z,931.80
2023-03-27T05:22:36.888Z,931.84
2023-03-27T05:23:36.797Z,931.95
2023-03-27T05:24:36.875Z,931.91
2023-03-27T05:25:36.792Z,932.00
2023-03-27T05:26:38.499Z,931.96
2023-03-27T05:27:36.793Z,932.01
2023-03-27T05:28:36.763Z,932.06
2023-03-27T05:29:46.405Z,931.96
2023-03-27T05:30:37.837Z,932.09
2023-03-27T05:31:36.731Z,932.10
2023-03-27T05:32:36.750Z,932.05
2023-03-27T05:33:36.712Z,932.13
2023-03-27T05:34:36.732Z,932.19
2023-03-27T05:35:36.736Z,932.19
2023-03-27T05:36:36.790Z,932.26
2023-03-27T05:37:36.668Z,932.21
2023-03-27T05:38:36.686Z,932.34
2023-03-27T05:39:36.676Z,932.32
2023-03-27T05:40:36.779Z,932.41
2023-03-27T05:41:36.677Z,932.35
2023-03-27T05:42:36.673Z,932.40
2023-03-27T05:43:36.793Z,932.37
2023-03-27T05:44:36.650Z,932.55
2023-03-27T05:45:36.598Z,932.49
2023-03-27T05:46:36.604Z,932.58
2023-03-27T05:47:36.596Z,932.56
2023-03-27T05:48:36.533Z,932.64
2023-03-27T05:49:36.590Z,932.67
2023-03-27T05:50:36.513Z,932.71
2023-03-27T05:51:36.502Z,932.69
2023-03-27T05:52:36.501Z,932.78
2023-03-27T05:53:36.509Z,932.75
2023-03-27T05:54:36.509Z,932.84
2023-03-27T05:55:36.514Z,932.80
2023-03-27T05:56:36.493Z,932.89
2023-03-27T05:57:36.449Z,932.81
2023-03-27T05:58:36.451Z,932.95
2023-03-27T05:59:36.461Z,932.95
2023-03-27T06:00:36.445Z,932.97
2023-03-27T06:01:36.450Z,932.97
2023-03-27T06:02:36.446Z,933.08
2023-03-27T06:03:36.756Z,933.02
2023-03-27T06:04:36.422Z,933.07
2023-03-27T06:05:36.397Z,933.10
2023-03-27T06:06:36.395Z,933.15
2023-03-27T06:07:36.376Z,933.13
2023-03-27T06:08:36.560Z,933.17
2023-03-27T06:09:36.388Z,933.20
2023-03-27T06:10:36.326Z,933.23
2023-03-27T06:11:36.311Z,933.33
2023-03-27T06:12:36.323Z,933.32
2023-03-27T06:13:36.428Z,933.34
2023-03-27T06:14:36.286Z,933.30
2023-03-27T06:15:36.324Z,933.40
2023-03-27T06:16:40.920Z,933.35
2023-03-27T06:17:36.253Z,933.37
2023-03-27T06:18:36.281Z,933.33
2023-03-27T06:19:36.218Z,933.41
2023-03-27T06:20:36.257Z,933.45
2023-03-27T06:21:36.197Z,933.49
2023-03-27T06:22:36.189Z,933.54
2023-03-27T06:23:36.205Z,933.57
2023-03-27T06:24:36.179Z,933.54
2023-03-27T06:25:36.171Z,933.61
2023-03-27T06:26:36.222Z,933.59
2023-03-27T06:27:36.146Z,933.71
2023-03-27T06:29:53.400Z,933.71
2023-03-27T06:30:53.374Z,933.77
2023-03-27T06:31:53.359Z,933.79
2023-03-27T06:32:53.318Z,933.76
2023-03-27T06:33:53.303Z,933.84
2023-03-27T06:34:53.288Z,933.86
2023-03-27T06:35:53.761Z,933.87
2023-03-27T06:36:53.271Z,933.88
2023-03-27T06:37:53.313Z,933.99
2023-03-27T06:38:53.286Z,933.94
2023-03-27T06:39:53.280Z,934.01
2023-03-27T06:40:53.227Z,934.01
2023-03-27T06:41:53.456Z,934.14
2023-03-27T06:42:53.233Z,934.10
2023-03-27T06:43:53.218Z,934.20
2023-03-27T06:44:53.241Z,934.12
2023-03-27T06:45:53.201Z,934.27
2023-03-27T06:46:53.268Z,934.25
2023-03-27T06:47:54.866Z,934.37
2023-03-27T06:48:53.205Z,934.35
2023-03-27T06:49:53.174Z,934.40
2023-03-27T06:50:53.483Z,934.43
2023-03-27T06:51:53.197Z,934.48
2023-03-27T06:52:53.124Z,934.42
2023-03-27T06:53:53.246Z,934.51
2023-03-27T06:54:53.115Z,934.50
2023-03-27T06:55:53.071Z,934.57
2023-03-27T06:56:53.136Z,934.56
2023-03-27T06:57:53.072Z,934.60
2023-03-27T06:58:53.041Z,934.70
2023-03-27T06:59:53.085Z,934.66
2023-03-27T07:00:53.079Z,934.78
2023-03-27T07:01:53.085Z,934.70
2023-03-27T07:02:53.076Z,934.75
2023-03-27T07:03:53.008Z,934.73
2023-03-27T07:05:03.860Z,934.85
2023-03-27T07:05:54.130Z,934.81
2023-03-27T07:06:52.990Z,934.84
2023-03-27T07:07:53.032Z,934.82
2023-03-27T07:08:52.946Z,934.93
2023-03-27T07:09:52.954Z,934.82
2023-03-27T07:11:09.924Z,934.95
2023-03-27T07:11:53.939Z,934.85
2023-03-27T07:12:52.930Z,934.97
2023-03-27T07:13:52.919Z,934.91
2023-03-27T07:14:52.924Z,934.98
2023-03-27T07:15:52.959Z,935.00
2023-03-27T07:16:53.018Z,935.15
2023-03-27T07:17:52.891Z,935.08
2023-03-27T07:18:52.872Z,935.21
2023-03-27T07:19:52.870Z,935.11
2023-03-27T07:20:52.835Z,935.21
2023-03-27T07:21:52.856Z,935.20
2023-03-27T07:22:54.112Z,935.31
2023-03-27T07:23:52.842Z,935.25
2023-03-27T07:24:52.789Z,935.31
2023-03-27T07:25:53.031Z,935.32
2023-03-27T07:26:52.774Z,935.40
2023-03-27T07:27:52.762Z,935.46
2023-03-27T07:28:52.938Z,935.50
2023-03-27T07:29:54.310Z,935.47
2023-03-27T07:30:52.743Z,935.47
2023-03-27T07:31:57.568Z,935.47
2023-03-27T07:32:53.825Z,935.52
2023-03-27T07:33:52.792Z,935.55
2023-03-27T07:34:52.671Z,935.53
2023-03-27T07:35:52.817Z,935.60
2023-03-27T07:36:52.775Z,935.52
2023-03-27T07:37:52.651Z,935.52
2023-03-27T07:38:52.893Z,935.54
2023-03-27T07:39:52.702Z,935.57
2023-03-27T07:40:52.819Z,935.58
2023-03-27T07:41:52.604Z,935.63
2023-03-27T07:42:52.599Z,935.57
2023-03-27T07:43:53.513Z,935.67
2023-03-27T07:44:52.595Z,935.68
2023-03-27T07:45:52.628Z,935.79
2023-03-27T07:46:52.632Z,935.73
2023-03-27T07:47:52.668Z,935.86
2023-03-27T07:48:52.596Z,935.75
2023-03-27T07:49:52.619Z,935.88
2023-03-27T07:50:56.033Z,935.84
2023-03-27T07:51:53.559Z,935.94
2023-03-27T07:52:52.509Z,935.92
2023-03-27T07:53:52.513Z,936.00
2023-03-27T07:54:52.588Z,936.00
2023-03-27T07:55:52.541Z,935.99
2023-03-27T07:56:52.526Z,936.08
2023-03-27T07:58:01.740Z,936.03
2023-03-27T07:58:53.482Z,936.04
2023-03-27T07:59:52.641Z,936.11
2023-03-27T08:00:52.457Z,936.15
2023-03-27T08:01:52.435Z,936.12
2023-03-27T08:02:52.684Z,936.27
2023-03-27T08:03:52.552Z,936.15
2023-03-27T08:04:52.514Z,936.26
2023-03-27T08:05:52.365Z,936.20
2023-03-27T08:06:52.404Z,936.34
2023-03-27T08:07:52.354Z,936.26
2023-03-27T08:08:52.414Z,936.35
2023-03-27T08:09:52.337Z,936.27
2023-03-27T08:10:52.310Z,936.36
2023-03-27T08:11:52.368Z,936.33
2023-03-27T08:12:52.396Z,936.41
2023-03-27T08:13:52.366Z,936.47
2023-03-27T08:14:52.385Z,936.42
2023-03-27T08:15:52.273Z,936.49
2023-03-27T08:16:52.404Z,936.48
2023-03-27T08:17:52.305Z,936.62
2023-03-27T08:18:52.263Z,936.46
2023-03-27T08:19:52.287Z,936.60
2023-03-27T08:20:52.220Z,936.58
2023-03-27T08:21:52.245Z,936.66
2023-03-27T08:22:52.200Z,936.63
2023-03-27T08:23:52.211Z,936.71
2023-03-27T08:24:52.177Z,936.70
2023-03-27T08:25:52.171Z,936.68
2023-03-27T08:26:52.149Z,936.73
2023-03-27T08:27:52.171Z,936.70
2023-03-27T08:28:52.164Z,936.79
2023-03-27T08:29:52.205Z,936.78
2023-03-27T08:30:52.198Z,936.82
2023-03-27T08:31:52.093Z,936.77
2023-03-27T08:32:52.244Z,936.89
2023-03-27T08:33:52.122Z,936.78
2023-03-27T08:34:52.069Z,936.93
2023-03-27T08:35:52.146Z,936.87
2023-03-27T08:36:52.059Z,936.88
2023-03-27T08:37:52.052Z,936.91
2023-03-27T08:38:52.032Z,936.90
2023-03-27T08:39:52.015Z,936.97
2023-03-27T08:40:52.036Z,936.93
2023-03-27T08:41:52.008Z,937.01
2023-03-27T08:42:52.009Z,936.96
2023-03-27T08:43:52.014Z,937.07
2023-03-27T08:44:51.979Z,937.03
2023-03-27T08:45:52.039Z,937.10
2023-03-27T08:46:51.986Z,937.13
2023-03-27T08:47:52.000Z,937.11
2023-03-27T08:48:51.946Z,937.09
2023-03-27T08:49:51.928Z,937.07
2023-03-27T08:50:52.081Z,937.17
2023-03-27T08:51:51.903Z,937.16
2023-03-27T08:52:51.901Z,937.25
2023-03-27T08:53:51.892Z,937.19
2023-03-27T08:54:51.889Z,937.26
2023-03-27T08:55:51.852Z,937.24
2023-03-27T08:56:51.918Z,937.31
2023-03-27T08:57:51.926Z,937.37
2023-03-27T08:58:51.828Z,937.34
2023-03-27T08:59:51.811Z,937.48
2023-03-27T09:00:51.836Z,937.42
2023-03-27T09:01:51.858Z,937.53
2023-03-27T09:02:51.854Z,937.49
2023-03-27T09:03:51.885Z,937.49
2023-03-27T09:04:51.817Z,937.53
2023-03-27T09:05:51.775Z,937.54
2023-03-27T09:06:51.848Z,937.51
2023-03-27T09:07:51.747Z,937.53
2023-03-27T09:08:51.720Z,937.59
2023-03-27T09:09:51.707Z,937.64
2023-03-27T09:10:51.727Z,937.64
2023-03-27T09:11:51.718Z,937.73
2023-03-27T09:12:51.724Z,937.61
2023-03-27T09:13:51.674Z,937.73
2023-03-27T09:14:51.668Z,937.71
2023-03-27T09:15:51.679Z,937.79
2023-03-27T09:16:56.517Z,937.75
2023-03-27T09:17:51.669Z,937.78
2023-03-27T09:18:51.635Z,937.84
2023-03-27T09:19:51.621Z,937.84
2023-03-27T09:20:51.597Z,937.94
2023-03-27T09:21:51.611Z,937.90
2023-03-27T09:22:51.579Z,937.96
2023-03-27T09:23:51.599Z,937.97
2023-03-27T09:24:51.544Z,938.00
2023-03-27T09:25:51.563Z,938.07
2023-03-27T09:27:04.576Z,938.11
2023-03-27T09:27:52.531Z,938.12
2023-03-27T09:28:51.532Z,938.10
2023-03-27T09:29:51.521Z,938.12
2023-03-27T09:30:52.500Z,938.19
2023-03-27T09:31:51.528Z,938.12
2023-03-27T09:32:51.577Z,938.19
2023-03-27T09:33:51.493Z,938.13
2023-03-27T09:34:51.462Z,938.18
2023-03-27T09:35:51.439Z,938.09
2023-03-27T09:36:51.424Z,938.11
2023-03-27T09:37:51.496Z,938.23
2023-03-27T09:38:51.488Z,938.20
2023-03-27T09:39:51.397Z,938.27
2023-03-27T09:40:51.402Z,938.20
2023-03-27T09:41:51.368Z,938.30
2023-03-27T09:42:51.374Z,938.25
2023-03-27T09:43:51.399Z,938.22
2023-03-27T09:44:51.342Z,938.32
2023-03-27T09:45:51.324Z,938.25
2023-03-27T09:46:51.380Z,938.34
2023-03-27T09:47:51.323Z,938.24
2023-03-27T09:48:51.319Z,938.34
2023-03-27T09:49:51.292Z,938.33
2023-03-27T09:50:51.291Z,938.37
2023-03-27T09:51:51.301Z,938.43
2023-03-27T09:52:51.261Z,938.38
2023-03-27T09:53:51.417Z,938.44
2023-03-27T09:54:51.238Z,938.40
2023-03-27T09:55:51.220Z,938.38
2023-03-27T09:56:51.263Z,938.42
2023-03-27T09:57:51.207Z,938.46
2023-03-27T09:58:51.220Z,938.51
2023-03-27T09:59:51.208Z,938.47
2023-03-27T10:00:51.223Z,938.54
2023-03-27T10:01:51.172Z,938.52
2023-03-27T10:02:51.207Z,938.46
2023-03-27T10:03:51.299Z,938.56
2023-03-27T10:04:51.167Z,938.48
2023-03-27T10:05:51.140Z,938.53
2023-03-27T10:06:51.155Z,938.56
2023-03-27T10:07:51.137Z,938.55
2023-03-27T10:08:51.101Z,938.61
2023-03-27T10:09:51.150Z,938.55
2023-03-27T10:10:51.072Z,938.54
2023-03-27T10:11:51.097Z,938.56
2023-03-27T10:12:51.057Z,938.54
2023-03-27T10:13:51.087Z,938.60
2023-03-27T10:14:52.572Z,938.61
2023-03-27T10:15:51.065Z,938.65
2023-03-27T10:16:51.076Z,938.61
2023-03-27T10:17:51.020Z,938.58
2023-03-27T10:18:51.000Z,938.70
2023-03-27T10:19:50.975Z,938.73
2023-03-27T10:20:51.028Z,938.72
2023-03-27T10:21:50.962Z,938.78
2023-03-27T10:22:53.339Z,938.77
2023-03-27T10:23:50.986Z,938.78
2023-03-27T10:24:50.938Z,938.79
2023-03-27T10:25:50.937Z,938.83
2023-03-27T10:26:51.002Z,938.89
2023-03-27T10:27:50.897Z,938.91
2023-03-27T10:28:50.881Z,939.02
2023-03-27T10:29:50.871Z,938.97
2023-03-27T10:30:51.500Z,938.96
2023-03-27T10:31:50.993Z,939.06
2023-03-27T10:32:50.904Z,938.99
2023-03-27T10:33:50.988Z,939.09
2023-03-27T10:34:50.888Z,939.11
2023-03-27T10:35:50.876Z,939.08
2023-03-27T10:36:50.838Z,939.16
2023-03-27T10:37:51.058Z,939.10
2023-03-27T10:38:50.787Z,939.19
2023-03-27T10:39:50.831Z,939.12
2023-03-27T10:40:50.778Z,939.20
2023-03-27T10:41:50.784Z,939.23
2023-03-27T10:42:50.812Z,939.13
2023-03-27T10:43:50.739Z,939.22
2023-03-27T10:44:50.714Z,939.19
2023-03-27T10:45:50.807Z,939.19
2023-03-27T10:46:55.597Z,939.23
2023-03-27T10:47:50.755Z,939.16
2023-03-27T10:48:50.693Z,939.22
2023-03-27T10:49:50.663Z,939.12
2023-03-27T10:50:50.704Z,939.19
2023-03-27T10:51:50.663Z,939.19
2023-03-27T10:52:50.666Z,939.19
2023-03-27T10:53:50.687Z,939.27
2023-03-27T10:54:50.638Z,939.18
2023-03-27T10:55:50.709Z,939.26
2023-03-27T10:56:50.665Z,939.26
2023-03-27T10:57:50.637Z,939.24
2023-03-27T10:58:50.602Z,939.30
2023-03-27T10:59:50.563Z,939.25
2023-03-27T11:00:50.566Z,939.32
2023-03-27T11:01:50.613Z,939.33
2023-03-27T11:02:50.640Z,939.36
2023-03-27T11:03:50.624Z,939.40
2023-03-27T11:04:50.575Z,939.34
2023-03-27T11:05:50.525Z,939.42
2023-03-27T11:06:50.488Z,939.37
2023-03-27T11:07:50.532Z,939.39
2023-03-27T11:08:50.497Z,939.47
2023-03-27T11:09:50.500Z,939.37
2023-03-27T11:10:50.457Z,939.44
2023-03-27T11:11:50.453Z,939.41
2023-03-27T11:12:50.434Z,939.47
2023-03-27T11:13:50.493Z,939.51
2023-03-27T11:14:50.417Z,939.49
2023-03-27T11:15:50.400Z,939.59
2023-03-27T11:16:50.470Z,939.54
2023-03-27T11:17:50.446Z,939.57
2023-03-27T11:18:50.406Z,939.58
2023-03-27T11:19:50.361Z,939.52
2023-03-27T11:20:50.370Z,939.58
2023-03-27T11:21:50.336Z,939.56
2023-03-27T11:22:50.318Z,939.59
2023-03-27T11:23:50.418Z,939.59
2023-03-27T11:24:50.522Z,939.57
2023-03-27T11:25:50.322Z,939.59
2023-03-27T11:26:50.315Z,939.56
2023-03-27T11:27:50.356Z,939.64
2023-03-27T11:28:50.266Z,939.72
2023-03-27T11:29:50.282Z,939.78
2023-03-27T11:30:59.030Z,939.77
2023-03-27T11:31:51.333Z,939.77
2023-03-27T11:32:50.341Z,939.86
2023-03-27T11:33:50.292Z,939.84
2023-03-27T11:34:50.226Z,939.84
2023-03-27T11:35:50.334Z,939.87
2023-03-27T11:36:50.280Z,939.74
2023-03-27T11:37:50.192Z,939.80
2023-03-27T11:38:50.198Z,939.74
2023-03-27T11:39:50.148Z,939.72
2023-03-27T11:40:50.232Z,939.80
2023-03-27T11:41:50.184Z,939.81
2023-03-27T11:42:50.123Z,939.72
2023-03-27T11:43:50.129Z,939.79
2023-03-27T11:44:50.119Z,940.00
2023-03-27T11:45:50.173Z,939.79
2023-03-27T11:46:55.056Z,939.59
2023-03-27T11:47:50.188Z,939.54
2023-03-27T11:48:50.157Z,939.62
2023-03-27T11:49:50.134Z,939.59
2023-03-27T11:50:50.043Z,939.56
2023-03-27T11:51:50.039Z,939.46
2023-03-27T11:52:50.181Z,939.51
2023-03-27T11:53:50.055Z,939.52
2023-03-27T11:54:50.082Z,939.60
2023-03-27T11:55:50.034Z,939.50
2023-03-27T11:56:50.017Z,939.58
2023-03-27T11:57:50.006Z,939.62
2023-03-27T11:58:50.000Z,939.58
2023-03-27T11:59:49.987Z,939.66
2023-03-27T12:00:49.968Z,939.51
2023-03-27T12:01:50.043Z,939.76
2023-03-27T12:02:50.126Z,939.79
2023-03-27T12:03:50.036Z,939.81
2023-03-27T12:04:49.984Z,939.89
2023-03-27T12:05:49.888Z,939.90
2023-03-27T12:06:49.943Z,939.85
2023-03-27T12:07:49.910Z,939.21
2023-03-27T12:08:49.917Z,939.32
2023-03-27T12:09:49.901Z,939.28
2023-03-27T12:10:49.954Z,939.24
2023-03-27T12:11:49.832Z,939.36
2023-03-27T12:12:49.850Z,939.05
2023-03-27T12:13:58.191Z,939.33
2023-03-27T12:14:50.805Z,939.32
2023-03-27T12:15:49.819Z,939.16
2023-03-27T12:17:00.791Z,939.02
2023-03-27T12:17:49.782Z,939.21
2023-03-27T12:19:02.012Z,939.03
2023-03-27T12:19:50.736Z,939.01
2023-03-27T12:20:53.679Z,938.92
2023-03-27T12:21:49.766Z,938.96
2023-03-27T12:22:49.870Z,939.01
2023-03-27T12:23:49.752Z,939.01
2023-03-27T12:24:57.401Z,939.08
2023-03-27T12:25:50.673Z,939.13
2023-03-27T12:26:49.777Z,939.16
2023-03-27T12:27:49.790Z,939.18
2023-03-27T12:28:49.653Z,939.18
2023-03-27T12:29:49.647Z,939.21